Time;durP1;ratioP1;P1;durP2;ratioP2;P2;SDS_P1;SDS_P2;PMS_P1;PMS_P2;Temp;Humidity;BMP_temperature;BMP_pressure;BME280_temperature;BME280_humidity;BME280_pressure;Samples;Min_cycle;Max_cycle;Signal;HPM_P1;HPM_P2
2022/09/27 00:00:24;;;;;;;9.52;2.35;;;;;;;9.18;100.00;99669.53;5029262;28;20503;-73
2022/09/27 00:02:50;;;;;;;7.15;2.00;;;;;;;9.16;100.00;99669.56;5029676;28;20056;-74
2022/09/27 00:05:15;;;;;;;7.97;2.00;;;;;;;9.17;100.00;99660.75;5013376;28;20473;-74
2022/09/27 00:07:41;;;;;;;8.45;2.13;;;;;;;9.19;100.00;99676.53;5029626;28;20036;-74
2022/09/27 00:10:07;;;;;;;6.20;2.05;;;;;;;9.20;100.00;99675.63;5030847;28;20095;-74
2022/09/27 00:12:33;;;;;;;6.53;2.00;;;;;;;9.20;100.00;99678.28;5029461;28;20080;-74
2022/09/27 00:14:59;;;;;;;10.05;2.45;;;;;;;9.16;100.00;99682.78;5030886;28;20037;-74
2022/09/27 00:17:26;;;;;;;7.20;2.47;;;;;;;9.16;100.00;99685.44;5027748;28;20397;-73
2022/09/27 00:19:51;;;;;;;9.05;2.30;;;;;;;9.19;100.00;99695.03;5033739;28;20091;-73
2022/09/27 00:22:17;;;;;;;9.45;1.95;;;;;;;9.17;100.00;99697.72;5028190;28;20447;-73
2022/09/27 00:24:42;;;;;;;7.40;2.15;;;;;;;9.19;100.00;99690.59;5030951;28;20056;-73
2022/09/27 00:27:08;;;;;;;8.65;2.00;;;;;;;9.18;100.00;99699.44;5009406;28;20121;-74
2022/09/27 00:29:33;;;;;;;5.28;1.55;;;;;;;9.19;100.00;99700.31;5011703;28;20446;-74
2022/09/27 00:31:59;;;;;;;2.90;1.30;;;;;;;9.17;100.00;99689.81;5029233;28;20092;-73
2022/09/27 00:34:25;;;;;;;9.02;1.60;;;;;;;9.15;100.00;99688.09;5017588;28;20042;-73
2022/09/27 00:36:51;;;;;;;5.25;1.58;;;;;;;9.14;100.00;99692.53;5029224;28;20117;-73
2022/09/27 00:39:17;;;;;;;4.40;1.30;;;;;;;9.14;100.00;99686.41;5028822;28;20128;-74
2022/09/27 00:41:44;;;;;;;7.13;1.45;;;;;;;9.14;100.00;99697.81;5028926;28;20033;-73
2022/09/27 00:44:25;;;;;;;9.25;1.73;;;;;;;9.13;100.00;99698.75;5028736;28;20038;-73
2022/09/27 00:46:56;;;;;;;4.32;1.40;;;;;;;9.13;100.00;99705.81;5029809;28;20147;-73
2022/09/27 00:49:28;;;;;;;2.72;1.10;;;;;;;9.11;100.00;99703.22;5028972;28;20037;-74
2022/09/27 00:52:04;;;;;;;6.32;1.08;;;;;;;9.07;100.00;99706.00;5029991;28;20033;-74
2022/09/27 00:54:33;;;;;;;6.80;1.25;;;;;;;9.09;100.00;99706.81;5028059;28;20036;-73
2022/09/27 00:56:58;;;;;;;6.80;1.48;;;;;;;9.09;100.00;99710.31;5017327;28;20026;-73
2022/09/27 00:59:36;;;;;;;7.00;1.48;;;;;;;9.07;100.00;99712.13;5017957;28;20104;-74
2022/09/27 01:02:05;;;;;;;5.28;1.50;;;;;;;9.06;100.00;99714.84;5028632;28;20040;-73
2022/09/27 01:04:32;;;;;;;5.68;1.38;;;;;;;9.04;100.00;99710.47;5028360;28;20120;-74
2022/09/27 01:06:58;;;;;;;5.00;1.00;;;;;;;9.05;100.00;99716.63;5029570;28;20033;-73
2022/09/27 01:09:24;;;;;;;5.43;1.35;;;;;;;9.07;100.00;99719.22;5032489;28;20041;-73
2022/09/27 01:12:03;;;;;;;8.25;1.70;;;;;;;9.07;100.00;99708.66;5019163;28;20053;-73
2022/09/27 01:14:52;;;;;;;5.72;1.65;;;;;;;9.09;100.00;99701.53;5006832;28;20036;-74
2022/09/27 01:17:33;;;;;;;7.55;1.17;;;;;;;9.08;100.00;99711.25;5014769;28;20049;-74
2022/09/27 01:20:35;;;;;;;6.05;1.15;;;;;;;9.07;100.00;99706.84;5032477;28;20033;-74
2022/09/27 01:23:38;;;;;;;8.25;1.40;;;;;;;9.06;100.00;99707.78;5018902;28;20037;-73
2022/09/27 01:26:32;;;;;;;7.28;1.30;;;;;;;9.04;100.00;99713.09;5020295;28;20300;-73
2022/09/27 01:29:20;;;;;;;4.18;1.35;;;;;;;9.06;100.00;99709.56;5031472;28;20504;-73
2022/09/27 01:32:07;;;;;;;4.80;1.25;;;;;;;9.02;100.00;99717.56;5020250;28;20418;-74
2022/09/27 01:34:52;;;;;;;7.30;1.40;;;;;;;9.00;100.00;99710.63;5018156;28;20037;-74
2022/09/27 01:37:24;;;;;;;4.38;1.30;;;;;;;8.98;100.00;99715.97;5028483;28;20033;-73
2022/09/27 01:40:27;;;;;;;5.80;1.05;;;;;;;8.94;100.00;99714.34;5033255;28;20033;-73
2022/09/27 01:43:16;;;;;;;9.80;1.52;;;;;;;8.90;100.00;99725.03;5029947;28;20475;-73
2022/09/27 01:45:50;;;;;;;6.20;1.27;;;;;;;8.85;100.00;99722.53;5033144;28;20610;-74
2022/09/27 01:48:39;;;;;;;7.05;1.65;;;;;;;8.83;100.00;99727.03;5032300;28;20507;-73
2022/09/27 01:51:19;;;;;;;8.10;1.58;;;;;;;8.82;100.00;99735.84;5031712;28;20033;-73
2022/09/27 01:53:51;;;;;;;6.70;1.60;;;;;;;8.80;100.00;99735.94;5028444;28;20390;-73
2022/09/27 01:56:54;;;;;;;7.00;1.50;;;;;;;8.80;100.00;99729.75;5020477;28;20044;-73
2022/09/27 01:59:33;;;;;;;3.35;1.35;;;;;;;8.77;100.00;99738.63;5031628;28;20053;-73
2022/09/27 02:02:34;;;;;;;6.05;1.30;;;;;;;8.78;100.00;99728.97;5006113;28;20073;-73
2022/09/27 02:05:58;;;;;;;3.95;1.20;;;;;;;8.77;100.00;99719.31;5017331;28;20045;-73
2022/09/27 02:09:02;;;;;;;6.10;1.50;;;;;;;8.75;100.00;99713.22;5020355;28;20052;-74
2022/09/27 02:11:51;;;;;;;4.47;1.10;;;;;;;8.72;100.00;99719.44;5031667;28;20064;-73
2022/09/27 02:14:41;;;;;;;6.82;1.25;;;;;;;8.68;100.00;99723.13;5031624;28;20033;-74
2022/09/27 02:17:22;;;;;;;6.88;1.35;;;;;;;8.65;100.00;99728.47;5015502;28;20055;-73
2022/09/27 02:20:20;;;;;;;4.25;0.98;;;;;;;8.57;100.00;99720.81;5014448;28;20037;-73
2022/09/27 02:22:56;;;;;;;6.07;1.30;;;;;;;8.53;100.00;99728.84;5030662;28;20057;-73
2022/09/27 02:25:24;;;;;;;;;;;;;;;8.58;100.00;99722.53;5031605;28;20459;-73
2022/09/27 02:27:55;;;;;;;4.50;1.10;;;;;;;8.49;100.00;99725.47;5031017;28;19920;-73
2022/09/27 02:30:22;;;;;;;3.88;1.25;;;;;;;8.44;100.00;99726.53;5030419;28;20476;-73
2022/09/27 02:32:54;;;;;;;2.83;1.17;;;;;;;8.39;100.00;99726.63;5018783;28;20033;-73
2022/09/27 02:35:31;;;;;;;3.88;0.98;;;;;;;8.38;100.00;99727.53;5013737;28;20041;-73
2022/09/27 02:37:57;;;;;;;4.45;0.95;;;;;;;8.34;100.00;99737.31;5030518;28;20080;-73
2022/09/27 02:40:28;;;;;;;6.13;1.42;;;;;;;8.31;100.00;99745.34;5013655;28;20091;-73
2022/09/27 02:42:54;;;;;;;9.55;1.73;;;;;;;8.31;100.00;99741.84;5030893;28;20038;-73
2022/09/27 02:45:20;;;;;;;5.85;1.42;;;;;;;8.28;100.00;99745.41;5030901;28;20123;-73
2022/09/27 02:48:04;;;;;;;7.68;1.95;;;;;;;8.26;100.00;99741.09;5031233;28;20176;-73
2022/09/27 02:50:35;;;;;;;6.80;1.48;;;;;;;8.24;100.00;99737.66;5030695;28;20450;-73
2022/09/27 02:53:28;;;;;;;9.30;1.88;;;;;;;8.21;100.00;99743.88;5032647;28;20048;-73
2022/09/27 02:56:32;;;;;;;9.48;1.83;;;;;;;8.20;100.00;99736.88;5014075;28;20040;-73
2022/09/27 02:59:48;;;;;;;4.47;1.33;;;;;;;8.14;100.00;99735.28;5014582;28;20380;-73
2022/09/27 03:02:52;;;;;;;5.13;1.25;;;;;;;8.11;100.00;99732.75;5032352;28;20041;-73
2022/09/27 03:05:44;;;;;;;5.78;1.35;;;;;;;8.10;100.00;99727.50;5017522;28;20163;-73
2022/09/27 03:08:11;;;;;;;6.32;1.15;;;;;;;8.05;100.00;99735.53;5027943;28;20064;-73
2022/09/27 03:10:37;;;;;;;8.32;1.38;;;;;;;8.03;100.00;99734.72;5030638;28;20029;-73
2022/09/27 03:13:03;;;;;;;7.18;1.75;;;;;;;8.07;100.00;99724.97;5030855;28;20386;-73
2022/09/27 03:15:30;;;;;;;6.57;1.02;;;;;;;8.02;100.00;99722.47;5031901;28;20056;-73
2022/09/27 03:17:59;;;;;;;5.18;1.38;;;;;;;7.98;100.00;99724.31;5029694;28;20057;-73
2022/09/27 03:20:44;;;;;;;5.93;1.13;;;;;;;7.95;100.00;99726.19;5022533;28;20159;-73
2022/09/27 03:23:12;;;;;;;7.22;1.38;;;;;;;7.93;100.00;99733.25;5006379;28;20038;-73
2022/09/27 03:25:38;;;;;;;7.95;2.03;;;;;;;7.92;100.00;99731.53;5013584;28;20038;-73
2022/09/27 03:28:03;;;;;;;5.18;1.35;;;;;;;7.87;100.00;99734.31;5036557;28;20025;-72
2022/09/27 03:30:30;;;;;;;4.25;1.20;;;;;;;7.88;100.00;99738.66;5013286;28;20052;-73
2022/09/27 03:32:55;;;;;;;4.53;1.08;;;;;;;7.86;100.00;99737.88;5030371;28;20095;-73
2022/09/27 03:35:41;;;;;;;7.30;1.73;;;;;;;7.83;100.00;99742.34;5025871;28;20842;-73
2022/09/27 03:38:08;;;;;;;4.90;1.27;;;;;;;7.89;100.00;99747.47;5030292;28;20038;-73
2022/09/27 03:40:35;;;;;;;6.90;1.42;;;;;;;7.86;100.00;99756.31;5030247;28;20132;-73
2022/09/27 03:43:00;;;;;;;9.05;1.60;;;;;;;7.89;100.00;99769.41;5031364;28;20112;-72
2022/09/27 03:45:26;;;;;;;4.20;1.27;;;;;;;7.91;100.00;99764.06;5029695;28;20154;-73
2022/09/27 03:47:53;;;;;;;11.65;2.30;;;;;;;7.91;100.00;99785.16;5030101;28;20083;-73
2022/09/27 03:50:18;;;;;;;8.77;1.70;;;;;;;7.91;100.00;99796.59;5013112;28;20041;-73
2022/09/27 03:52:44;;;;;;;14.73;2.38;;;;;;;7.92;100.00;99808.84;5029923;28;20033;-73
2022/09/27 03:55:11;;;;;;;8.45;1.60;;;;;;;8.01;100.00;99812.13;5030990;28;20068;-73
2022/09/27 03:57:37;;;;;;;8.63;1.48;;;;;;;7.91;100.00;99804.50;5032159;28;20122;-74
2022/09/27 04:00:05;;;;;;;4.40;1.20;;;;;;;7.86;100.00;99800.22;5014305;28;20041;-75
2022/09/27 04:02:36;;;;;;;5.00;1.00;;;;;;;7.82;100.00;99798.59;5030504;28;20121;-75
2022/09/27 04:05:20;;;;;;;7.68;1.30;;;;;;;7.81;100.00;99791.59;5019960;28;20052;-75
2022/09/27 04:07:47;;;;;;;4.47;0.90;;;;;;;7.78;100.00;99794.31;5013687;28;20034;-75
2022/09/27 04:10:14;;;;;;;6.20;1.00;;;;;;;7.74;100.00;99790.91;5016394;28;20025;-75
2022/09/27 04:12:40;;;;;;;7.45;1.13;;;;;;;7.75;100.00;99777.69;5029887;28;20543;-76
2022/09/27 04:15:07;;;;;;;4.93;1.15;;;;;;;7.75;100.00;99768.91;5015004;28;20124;-75
2022/09/27 04:17:52;;;;;;;1.65;0.63;;;;;;;7.72;100.00;99761.97;5021475;28;20136;-75
2022/09/27 04:20:44;;;;;;;2.28;1.05;;;;;;;7.71;100.00;99762.84;5021964;28;20435;-75
2022/09/27 04:23:12;;;;;;;5.30;1.10;;;;;;;7.71;100.00;99757.56;5012992;28;20052;-75
2022/09/27 04:25:42;;;;;;;3.75;1.23;;;;;;;7.74;100.00;99761.94;5028476;28;20061;-75
2022/09/27 04:28:19;;;;;;;8.30;1.40;;;;;;;7.72;100.00;99755.81;5013564;28;20041;-75
2022/09/27 04:30:45;;;;;;;8.70;1.30;;;;;;;7.73;100.00;99755.75;5028325;28;20068;-75
2022/09/27 04:33:11;;;;;;;9.57;1.50;;;;;;;7.75;100.00;99766.28;5030766;28;20041;-75
2022/09/27 04:39:01;;;;;;;4.78;1.25;;;;;;;7.78;100.00;99754.78;5028857;28;20034;-75
2022/09/27 04:41:28;;;;;;;7.72;1.20;;;;;;;7.75;100.00;99763.63;5011917;28;20120;-75
2022/09/27 04:43:55;;;;;;;5.45;1.30;;;;;;;7.75;100.00;99758.38;5012233;28;20057;-75
2022/09/27 04:46:21;;;;;;;6.32;1.10;;;;;;;7.78;100.00;99765.31;5028961;28;20045;-75
2022/09/27 04:48:47;;;;;;;2.80;0.88;;;;;;;7.74;100.00;99767.19;5012101;28;20073;-75
2022/09/27 04:51:17;;;;;;;2.85;1.17;;;;;;;7.74;100.00;99777.75;5028890;28;20044;-75
2022/09/27 04:53:46;;;;;;;5.75;1.20;;;;;;;7.76;100.00;99775.91;5030128;28;20469;-75
2022/09/27 04:56:13;;;;;;;4.03;1.13;;;;;;;7.73;100.00;99781.25;5028785;28;20120;-75
2022/09/27 04:58:38;;;;;;;6.43;1.13;;;;;;;7.75;100.00;99790.84;5030311;28;20072;-74
2022/09/27 05:01:04;;;;;;;6.65;1.30;;;;;;;7.73;100.00;99795.28;5014715;28;20459;-74
2022/09/27 05:03:50;;;;;;;6.93;1.08;;;;;;;7.68;100.00;99807.72;5017491;28;20049;-74
2022/09/27 05:06:17;;;;;;;4.15;0.93;;;;;;;7.70;100.00;99820.88;5028748;28;20038;-74
2022/09/27 05:08:44;;;;;;;5.22;1.08;;;;;;;7.69;100.00;99822.66;5028800;28;20369;-75
2022/09/27 05:11:18;;;;;;;5.43;1.05;;;;;;;7.68;100.00;99823.53;5028386;28;20116;-75
2022/09/27 05:14:10;;;;;;;6.43;1.42;;;;;;;7.68;100.00;99818.28;5022053;28;20112;-75
2022/09/27 05:17:06;;;;;;;4.53;1.10;;;;;;;7.65;100.00;99805.19;5015986;28;20041;-75
2022/09/27 05:19:51;;;;;;;5.85;0.77;;;;;;;7.66;100.00;99795.50;5022893;28;20072;-76
2022/09/27 05:22:39;;;;;;;6.22;1.10;;;;;;;7.68;100.00;99806.88;5019262;28;20038;-75
2022/09/27 05:25:05;;;;;;;5.05;0.93;;;;;;;7.66;100.00;99777.91;5024759;28;20128;-76
2022/09/27 05:27:30;;;;;;;4.10;0.98;;;;;;;7.66;100.00;99788.47;5009966;28;20124;-75
2022/09/27 05:29:56;;;;;;;7.50;1.40;;;;;;;7.63;100.00;99778.00;5027978;28;20034;-74
2022/09/27 05:32:28;;;;;;;4.50;0.82;;;;;;;7.60;100.00;99787.78;5025758;28;20032;-75
2022/09/27 05:35:14;;;;;;;2.25;0.98;;;;;;;7.61;100.00;99786.84;5015936;28;20377;-75
2022/09/27 05:37:39;;;;;;;2.03;0.80;;;;;;;7.63;100.00;99792.97;4999849;28;20042;-76
2022/09/27 05:40:05;;;;;;;3.42;0.90;;;;;;;7.60;100.00;99796.53;5017630;28;20065;-75
2022/09/27 05:42:33;;;;;;;5.32;1.10;;;;;;;7.60;100.00;99790.41;4986072;28;20531;-74
2022/09/27 05:44:59;;;;;;;2.65;0.90;;;;;;;7.61;100.00;99786.84;5030415;28;20038;-75
2022/09/27 05:47:25;;;;;;;2.85;0.80;;;;;;;7.62;100.00;99792.09;5020384;28;20041;-75
2022/09/27 05:49:50;;;;;;;5.78;1.20;;;;;;;7.61;100.00;99785.09;4992405;28;20025;-75
2022/09/27 05:52:17;;;;;;;4.68;1.00;;;;;;;7.62;100.00;99776.28;5023059;28;20132;-75
2022/09/27 05:54:44;;;;;;;2.92;0.93;;;;;;;7.66;100.00;99775.28;5014584;28;20034;-75
2022/09/27 05:57:11;;;;;;;3.92;1.08;;;;;;;7.64;100.00;99776.22;5035823;28;20048;-75
2022/09/27 05:59:42;;;;;;;;;;;;;;;7.65;100.00;99778.84;5025516;28;20042;-75
2022/09/27 06:02:27;;;;;;;6.13;1.00;;;;;;;7.62;100.00;99786.84;5031413;28;20325;-74
2022/09/27 06:05:11;;;;;;;2.55;0.80;;;;;;;7.62;100.00;99791.25;5019316;28;20110;-75
2022/09/27 06:07:39;;;;;;;3.80;0.82;;;;;;;7.60;100.00;99787.78;5019683;28;20077;-75
2022/09/27 06:10:08;;;;;;;3.47;1.02;;;;;;;7.61;100.00;99781.59;5014803;28;20032;-76
2022/09/27 06:12:34;;;;;;;6.88;1.10;;;;;;;7.61;100.00;99786.84;4999134;28;20042;-75
2022/09/27 06:15:01;;;;;;;5.07;0.95;;;;;;;7.60;100.00;99806.22;5024463;28;20060;-75
2022/09/27 06:17:40;;;;;;;4.15;0.98;;;;;;;7.61;100.00;99811.44;5013265;28;20057;-74
2022/09/27 06:20:13;;;;;;;2.50;0.80;;;;;;;7.63;100.00;99814.03;5029535;28;20080;-75
2022/09/27 06:22:40;;;;;;;4.20;1.15;;;;;;;7.62;100.00;99807.91;5028520;28;20069;-75
2022/09/27 06:25:06;;;;;;;2.53;0.80;;;;;;;7.64;100.00;99806.09;5035673;28;20037;-74
2022/09/27 06:27:39;;;;;;;1.98;0.80;;;;;;;7.61;100.00;99802.66;5015502;28;20120;-75
2022/09/27 06:30:11;;;;;;;3.00;0.80;;;;;;;7.62;100.00;99807.91;5015008;28;20087;-75
2022/09/27 06:32:45;;;;;;;2.47;0.88;;;;;;;7.63;100.00;99804.34;5031401;28;20079;-75
2022/09/27 06:35:18;;;;;;;1.45;0.65;;;;;;;7.61;100.00;99803.53;5031238;28;20043;-75
2022/09/27 06:37:43;;;;;;;2.92;0.80;;;;;;;7.56;100.00;99797.50;5031256;28;20128;-75
2022/09/27 06:40:09;;;;;;;1.65;0.73;;;;;;;7.56;100.00;99802.78;5014657;28;20034;-74
2022/09/27 06:43:01;;;;;;;6.78;1.20;;;;;;;7.58;100.00;99806.25;5031105;28;20043;-74
2022/09/27 06:45:46;;;;;;;3.10;1.10;;;;;;;7.59;100.00;99804.47;5032655;28;20104;-74
2022/09/27 06:48:41;;;;;;;4.68;0.95;;;;;;;7.63;100.00;99801.72;5026828;28;20042;-74
2022/09/27 06:51:14;;;;;;;1.77;1.23;;;;;;;7.63;100.00;99800.88;4998929;28;20076;-74
2022/09/27 06:53:41;;;;;;;1.77;1.10;;;;;;;7.61;100.00;99808.78;5030991;28;20049;-74
2022/09/27 06:56:06;;;;;;;2.75;1.20;;;;;;;7.62;100.00;99801.78;5013111;28;20052;-75
2022/09/27 07:01:41;;;;;;;4.70;1.65;;;;;;;7.64;100.00;99803.47;5031859;28;20042;-74
2022/09/27 07:04:38;;;;;;;3.30;1.42;;;;;;;7.66;100.00;99812.16;5013193;28;20382;-74
2022/09/27 07:07:12;;;;;;;2.42;1.35;;;;;;;7.67;100.00;99806.00;5006119;28;20473;-74
2022/09/27 07:09:44;;;;;;;6.75;1.50;;;;;;;7.72;100.00;99811.16;5010666;28;20401;-75
2022/09/27 07:12:12;;;;;;;7.68;1.48;;;;;;;7.73;100.00;99816.38;5031869;28;20124;-75
2022/09/27 07:14:38;;;;;;;4.65;1.60;;;;;;;7.75;100.00;99817.22;5030122;28;20045;-74
2022/09/27 07:17:04;;;;;;;2.70;1.40;;;;;;;7.79;100.00;99820.66;5028984;28;20049;-74
2022/09/27 07:19:35;;;;;;;5.05;1.85;;;;;;;7.81;100.00;99816.16;5030205;28;20042;-74
2022/09/27 07:22:01;;;;;;;5.25;1.83;;;;;;;7.83;100.00;99824.91;5013538;28;20056;-74
2022/09/27 07:24:27;;;;;;;8.38;2.22;;;;;;;7.85;100.00;99825.72;5022812;28;20073;-74
2022/09/27 07:26:53;;;;;;;5.15;2.10;;;;;;;7.89;100.00;99835.31;5030171;28;20039;-74
2022/09/27 07:29:20;;;;;;;6.07;2.13;;;;;;;7.90;100.00;99823.84;5010279;28;20033;-75
2022/09/27 07:31:47;;;;;;;8.43;2.35;;;;;;;7.93;100.00;99823.75;5012151;28;20073;-74
2022/09/27 07:34:17;;;;;;;6.30;1.80;;;;;;;7.96;100.00;99834.22;5017757;28;20037;-74
2022/09/27 07:36:43;;;;;;;4.38;2.28;;;;;;;8.03;100.00;99834.03;5029901;28;20180;-74
2022/09/27 07:39:09;;;;;;;4.00;2.58;;;;;;;8.02;100.00;99834.97;5029477;28;20124;-74
2022/09/27 07:41:34;;;;;;;3.90;2.10;;;;;;;8.04;100.00;99834.03;5029979;28;20029;-74
2022/09/27 07:44:00;;;;;;;7.30;2.65;;;;;;;8.05;100.00;99840.16;5029600;28;20037;-75
2022/09/27 07:46:29;;;;;;;4.80;2.40;;;;;;;8.08;100.00;99843.56;5029963;28;20079;-74
2022/09/27 07:49:16;;;;;;;4.90;2.70;;;;;;;8.10;100.00;99840.88;5029448;28;20025;-74
2022/09/27 07:52:00;;;;;;;6.82;2.80;;;;;;;8.13;100.00;99844.28;5030155;28;20060;-74
2022/09/27 07:54:43;;;;;;;5.05;2.72;;;;;;;8.17;100.00;99842.44;5015289;28;20465;-74
2022/09/27 07:57:32;;;;;;;5.95;2.88;;;;;;;8.18;100.00;99838.88;5020397;28;20040;-74
2022/09/27 07:59:59;;;;;;;6.88;3.33;;;;;;;8.19;100.00;99845.91;5029400;28;20045;-74
2022/09/27 08:02:25;;;;;;;5.90;2.80;;;;;;;8.22;100.00;99853.72;5029334;28;20033;-74
2022/09/27 08:04:52;;;;;;;9.93;3.22;;;;;;;8.26;100.00;99851.84;4995893;28;20128;-74
2022/09/27 08:07:18;;;;;;;5.57;3.30;;;;;;;8.27;100.00;99851.81;5026385;28;20353;-74
2022/09/27 08:09:47;;;;;;;7.28;3.40;;;;;;;8.28;100.00;99853.53;5013210;28;20033;-74
2022/09/27 08:12:15;;;;;;;5.25;3.40;;;;;;;8.32;100.00;99847.28;5029147;28;20095;-74
2022/09/27 08:14:40;;;;;;;5.53;3.67;;;;;;;8.32;100.00;99847.28;5028846;28;20062;-74
2022/09/27 08:17:09;;;;;;;6.20;4.28;;;;;;;8.37;100.00;99852.44;5009988;28;20132;-74
2022/09/27 08:19:55;;;;;;;5.88;3.72;;;;;;;8.39;100.00;99853.25;5026583;28;20393;-72
2022/09/27 08:22:44;;;;;;;9.10;4.53;;;;;;;8.41;100.00;99848.84;5021123;28;20050;-74
2022/09/27 08:25:34;;;;;;;6.95;4.30;;;;;;;8.49;100.00;99845.97;5015361;28;20050;-74
2022/09/27 08:28:26;;;;;;;6.03;3.53;;;;;;;8.54;100.00;99858.13;5015035;28;20042;-74
2022/09/27 08:31:09;;;;;;;8.35;4.07;;;;;;;8.54;100.00;99850.19;5028937;28;20396;-73
2022/09/27 08:33:35;;;;;;;8.30;5.05;;;;;;;8.60;100.00;99857.06;5029039;28;20049;-73
2022/09/27 08:36:02;;;;;;;7.97;4.25;;;;;;;8.67;100.00;99860.41;4995907;28;20038;-74
2022/09/27 08:38:28;;;;;;;7.70;4.00;;;;;;;8.70;100.00;99858.53;5026042;28;20080;-74
2022/09/27 08:40:59;;;;;;;10.13;4.65;;;;;;;8.66;100.00;99862.19;5028986;28;20135;-73
2022/09/27 08:44:01;;;;;;;5.95;3.95;;;;;;;8.67;100.00;99870.97;5025500;28;20424;-74
2022/09/27 08:46:36;;;;;;;9.07;4.50;;;;;;;8.67;100.00;99874.44;5018973;28;20374;-73
2022/09/27 08:49:11;;;;;;;7.53;4.50;;;;;;;8.65;100.00;99876.25;5030176;28;20068;-73
2022/09/27 08:51:38;;;;;;;9.57;5.03;;;;;;;8.69;100.00;99874.41;5028631;28;20052;-73
2022/09/27 08:54:13;;;;;;;8.02;4.72;;;;;;;8.70;100.00;99884.91;5009154;28;20386;-74
2022/09/27 08:56:39;;;;;;;7.65;4.88;;;;;;;8.68;100.00;99878.84;5020809;28;20029;-73
2022/09/27 08:59:14;;;;;;;10.20;5.13;;;;;;;8.68;100.00;99884.13;5028519;28;20064;-73
2022/09/27 09:01:40;;;;;;;8.05;5.63;;;;;;;8.67;100.00;99877.09;5030386;28;20037;-73
2022/09/27 09:04:11;;;;;;;8.27;5.20;;;;;;;8.70;100.00;99887.56;5012833;28;20038;-74
2022/09/27 09:06:58;;;;;;;12.93;6.28;;;;;;;8.70;100.00;99891.97;5028966;28;20358;-74
2022/09/27 09:09:46;;;;;;;11.02;6.03;;;;;;;8.67;100.00;99885.00;5029034;28;20470;-74
2022/09/27 09:12:47;;;;;;;9.23;6.63;;;;;;;8.65;100.00;99896.53;5018582;28;20033;-74
2022/09/27 09:15:54;;;;;;;8.20;6.35;;;;;;;8.69;100.00;99900.81;5029034;28;20055;-74
2022/09/27 09:18:33;;;;;;;13.48;6.70;;;;;;;8.71;100.00;99899.00;5017411;28;20396;-74
2022/09/27 09:21:34;;;;;;;12.32;7.05;;;;;;;8.70;100.00;99900.75;5028637;28;20056;-74
2022/09/27 09:24:17;;;;;;;8.65;6.25;;;;;;;8.72;100.00;99896.28;5009270;28;20092;-74
2022/09/27 09:27:08;;;;;;;8.07;5.95;;;;;;;8.75;100.00;99901.50;5012150;28;20073;-74
2022/09/27 09:30:12;;;;;;;8.98;6.40;;;;;;;8.74;100.00;99902.41;5032094;28;20057;-74
2022/09/27 09:33:19;;;;;;;12.88;7.63;;;;;;;8.72;100.00;99895.44;5035410;28;20059;-73
2022/09/27 09:36:12;;;;;;;9.38;5.88;;;;;;;8.74;100.00;99907.69;5009095;28;20044;-75
2022/09/27 09:38:44;;;;;;;10.38;6.43;;;;;;;8.73;100.00;99902.44;5032698;28;20026;-75
2022/09/27 09:41:38;;;;;;;11.10;6.85;;;;;;;8.75;100.00;99911.19;5016433;28;20037;-76
2022/09/27 09:44:16;;;;;;;9.07;4.82;;;;;;;8.70;100.00;99906.03;5032617;28;20473;-76
2022/09/27 09:46:46;;;;;;;5.55;3.55;;;;;;;8.63;100.00;99900.97;5032650;28;20044;-76
2022/09/27 09:49:18;;;;;;;6.40;2.97;;;;;;;8.56;100.00;99906.44;5032620;28;20085;-76
2022/09/27 09:51:50;;;;;;;10.57;2.50;;;;;;;8.50;100.00;99903.09;5012740;28;20041;-76
2022/09/27 09:54:32;;;;;;;1.73;1.45;;;;;;;8.40;98.60;99899.84;5032419;28;20048;-76
2022/09/27 09:57:09;;;;;;;5.90;1.88;;;;;;;8.34;99.02;99898.22;5032642;28;20435;-76
2022/09/27 09:59:48;;;;;;;3.60;1.67;;;;;;;8.31;99.45;99900.97;5015593;28;20389;-74
2022/09/27 10:02:33;;;;;;;4.32;2.20;;;;;;;8.30;100.00;99895.72;5032042;28;20183;-75
2022/09/27 10:05:21;;;;;;;2.97;2.10;;;;;;;8.31;100.00;99898.31;5007676;28;20060;-75
2022/09/27 10:07:56;;;;;;;7.82;2.60;;;;;;;8.36;100.00;99900.84;5032122;28;20041;-75
2022/09/27 10:10:22;;;;;;;5.28;3.28;;;;;;;8.39;100.00;99900.75;5042821;28;20303;-74
2022/09/27 10:12:51;;;;;;;6.25;2.85;;;;;;;8.42;100.00;99898.06;5028330;28;20034;-74
2022/09/27 10:15:23;;;;;;;7.63;3.95;;;;;;;8.44;100.00;99906.78;5005800;28;20096;-74
2022/09/27 10:17:52;;;;;;;6.50;3.28;;;;;;;8.44;100.00;99903.28;5024319;28;20046;-74
2022/09/27 10:20:29;;;;;;;4.40;2.20;;;;;;;8.47;100.00;99908.47;5013475;28;20030;-74
2022/09/27 10:23:02;;;;;;;5.05;2.38;;;;;;;8.47;100.00;99905.84;5031594;28;20425;-74
2022/09/27 10:25:55;;;;;;;3.33;1.63;;;;;;;8.45;100.00;99905.88;5013277;28;20042;-74
2022/09/27 10:28:53;;;;;;;5.60;1.98;;;;;;;8.47;100.00;99905.84;5012808;28;20371;-74
2022/09/27 10:31:36;;;;;;;4.20;2.00;;;;;;;8.48;100.00;99903.16;5031916;28;20034;-74
2022/09/27 10:34:31;;;;;;;6.40;1.70;;;;;;;8.55;100.00;99904.69;5025137;28;20040;-74
2022/09/27 10:37:10;;;;;;;3.30;1.65;;;;;;;8.53;100.00;99914.47;5026558;28;20048;-74
2022/09/27 10:39:42;;;;;;;3.17;1.38;;;;;;;8.51;100.00;99913.63;5042865;28;20041;-74
2022/09/27 10:42:22;;;;;;;6.22;2.17;;;;;;;8.50;100.00;99897.81;5025226;28;20584;-74
2022/09/27 10:44:48;;;;;;;3.47;1.17;;;;;;;8.49;100.00;99909.31;5014669;28;20029;-74
2022/09/27 10:47:25;;;;;;;3.03;1.20;;;;;;;8.46;100.00;99898.84;5021146;28;20029;-74
2022/09/27 10:50:06;;;;;;;3.72;1.25;;;;;;;8.50;100.00;99909.25;5026554;28;20334;-74
2022/09/27 10:53:14;;;;;;;1.67;1.23;;;;;;;8.57;100.00;99904.66;5031528;28;20033;-74
2022/09/27 10:55:47;;;;;;;1.48;0.80;;;;;;;8.58;100.00;99907.28;5021085;28;20033;-74
2022/09/27 10:58:32;;;;;;;2.97;1.20;;;;;;;8.58;100.00;99906.38;5028314;28;20343;-75
2022/09/27 11:01:04;;;;;;;1.23;0.70;;;;;;;8.51;100.00;99908.34;5030761;28;20347;-76
2022/09/27 11:03:56;;;;;;;3.10;0.82;;;;;;;8.51;100.00;99900.44;5029123;28;20168;-75
2022/09/27 11:06:21;;;;;;;1.88;0.90;;;;;;;8.57;100.00;99904.66;5030968;28;20093;-75
2022/09/27 11:08:49;;;;;;;1.25;0.90;;;;;;;8.58;100.00;99901.09;5024081;28;20109;-75
2022/09/27 11:11:24;;;;;;;3.88;1.10;;;;;;;8.69;100.00;99912.22;5025134;28;20362;-75
2022/09/27 11:14:03;;;;;;;2.40;1.30;;;;;;;8.69;100.00;99906.09;5024484;28;20033;-75
2022/09/27 11:16:45;;;;;;;2.20;1.02;;;;;;;8.72;100.00;99904.22;5019585;28;20037;-75
2022/09/27 11:19:20;;;;;;;6.72;1.40;;;;;;;8.76;100.00;99903.22;5037601;28;20048;-75
2022/09/27 11:21:51;;;;;;;4.90;1.60;;;;;;;8.77;100.00;99907.59;5001236;28;20033;-76
2022/09/27 11:24:40;;;;;;;1.70;0.82;;;;;;;8.82;100.00;99899.53;5013880;28;20417;-75
2022/09/27 11:27:25;;;;;;;4.13;1.10;;;;;;;8.91;100.00;99906.34;5028247;28;20083;-75
2022/09/27 11:30:18;;;;;;;4.00;0.77;;;;;;;8.90;99.69;99904.59;5027368;28;20116;-76
2022/09/27 11:33:30;;;;;;;3.80;1.10;;;;;;;8.92;100.00;99905.41;5029979;28;20030;-76
2022/09/27 11:36:03;;;;;;;1.65;0.70;;;;;;;8.92;99.50;99895.69;5040075;28;20025;-76
2022/09/27 11:38:54;;;;;;;2.15;0.80;;;;;;;9.01;100.00;99891.94;5020231;28;20053;-76
2022/09/27 11:41:37;;;;;;;1.55;0.77;;;;;;;9.01;98.65;99884.00;5040434;28;20068;-76
2022/09/27 11:44:39;;;;;;;2.13;0.45;;;;;;;9.06;99.34;99889.16;5027116;28;20037;-76
2022/09/27 11:47:11;;;;;;;1.48;0.80;;;;;;;9.13;100.00;99883.63;5016007;28;20041;-76
2022/09/27 11:49:58;;;;;;;2.47;0.60;;;;;;;9.15;99.98;99887.09;5034093;28;20024;-76
2022/09/27 11:52:33;;;;;;;2.05;0.90;;;;;;;9.20;100.00;99877.25;5024293;28;20029;-76
2022/09/27 11:55:10;;;;;;;1.45;0.68;;;;;;;9.20;98.68;99882.53;5022170;28;20465;-76
2022/09/27 11:57:45;;;;;;;2.17;1.00;;;;;;;9.23;99.72;99889.50;5038216;28;20087;-75
2022/09/27 12:00:19;;;;;;;2.28;1.00;;;;;;;9.30;100.00;99887.50;5019960;28;20123;-75
2022/09/27 12:03:13;;;;;;;2.72;0.70;;;;;;;9.33;98.33;99887.44;5021862;28;20443;-77
2022/09/27 12:05:58;;;;;;;1.90;0.75;;;;;;;9.46;100.00;99879.03;5028310;28;20123;-77
2022/09/27 12:09:01;;;;;;;1.55;0.57;;;;;;;9.55;98.86;99872.59;5026373;28;20476;-78
2022/09/27 12:11:51;;;;;;;0.65;0.43;;;;;;;9.69;97.56;99886.22;5010047;28;21564;-78
2022/09/27 12:14:38;;;;;;;1.52;0.90;;;;;;;9.71;95.42;99883.50;5029300;28;20119;-78
2022/09/27 12:17:34;;;;;;;1.35;0.80;;;;;;;9.73;95.62;99878.19;5014636;28;20033;-77
2022/09/27 12:20:25;;;;;;;0.95;0.55;;;;;;;9.77;93.44;99879.81;5024189;28;20034;-79
2022/09/27 12:23:00;;;;;;;1.95;0.60;;;;;;;9.79;93.87;99880.59;5001315;28;20053;-78